<?xml version="1.0" encoding="utf-8"?>
<gpx xmlns:xsi="http://www.w3.org/2001/XMLSchema-instance" xmlns:xsd="http://www.w3.org/2001/XMLSchema" version="1.1" creator="Shapelink.com" xmlns="http://www.topografix.com/GPX/1/1" xmlns:gpxtpx="http://www.garmin.com/xmlschemas/TrackPointExtension/v1">
  <metadata>
    <name>Gåing 3.90 km, 2012-08-08</name>
    <desc></desc>
    <author><name>Mikael Blom</name></author> 
    <time>2012-08-08T18:39:04Z</time>
  </metadata>
  <trk>
    <name>Gåing 3.90 km, 2012-08-08</name>
    <trkseg>
      <trkpt lat="59.9888798" lon="17.7394456">
        <ele>89.0593</ele>
        <time>2012-08-08T18:39:04Z</time>
      </trkpt>
      <trkpt lat="59.9888089" lon="17.7390413">
        <ele>65.9877</ele>
        <time>2012-08-08T18:39:07Z</time>
      </trkpt>
      <trkpt lat="59.988718" lon="17.7389574">
        <ele>62.6229</ele>
        <time>2012-08-08T18:39:11Z</time>
      </trkpt>
      <trkpt lat="59.9886818" lon="17.7390533">
        <ele>65.9877</ele>
        <time>2012-08-08T18:39:15Z</time>
      </trkpt>
      <trkpt lat="59.9885996" lon="17.7392145">
        <ele>66.4683</ele>
        <time>2012-08-08T18:39:21Z</time>
      </trkpt>
      <trkpt lat="59.9885823" lon="17.7393797">
        <ele>74.1588</ele>
        <time>2012-08-08T18:39:24Z</time>
      </trkpt>
      <trkpt lat="59.9885251" lon="17.7394454">
        <ele>81.8494</ele>
        <time>2012-08-08T18:39:29Z</time>
      </trkpt>
      <trkpt lat="59.9885128" lon="17.7394662">
        <ele>83.772</ele>
        <time>2012-08-08T18:39:30Z</time>
      </trkpt>
      <trkpt lat="59.9885115" lon="17.7396521">
        <ele>88.098</ele>
        <time>2012-08-08T18:39:33Z</time>
      </trkpt>
      <trkpt lat="59.988369" lon="17.7393574">
        <ele>79.446</ele>
        <time>2012-08-08T18:39:38Z</time>
      </trkpt>
      <trkpt lat="59.9882707" lon="17.739413">
        <ele>81.3688</ele>
        <time>2012-08-08T18:39:43Z</time>
      </trkpt>
      <trkpt lat="59.9881834" lon="17.7391915">
        <ele>77.0428</ele>
        <time>2012-08-08T18:39:46Z</time>
      </trkpt>
      <trkpt lat="59.9881184" lon="17.7392265">
        <ele>83.772</ele>
        <time>2012-08-08T18:39:50Z</time>
      </trkpt>
      <trkpt lat="59.9880277" lon="17.7392489">
        <ele>89.0593</ele>
        <time>2012-08-08T18:39:55Z</time>
      </trkpt>
      <trkpt lat="59.9879795" lon="17.7395895">
        <ele>82.3301</ele>
        <time>2012-08-08T18:40:01Z</time>
      </trkpt>
      <trkpt lat="59.9879782" lon="17.7396159">
        <ele>78.9655</ele>
        <time>2012-08-08T18:40:02Z</time>
      </trkpt>
      <trkpt lat="59.9879395" lon="17.739749">
        <ele>69.3523</ele>
        <time>2012-08-08T18:40:07Z</time>
      </trkpt>
      <trkpt lat="59.987866" lon="17.7396259">
        <ele>69.3523</ele>
        <time>2012-08-08T18:40:12Z</time>
      </trkpt>
      <trkpt lat="59.9877631" lon="17.7394222">
        <ele>63.1036</ele>
        <time>2012-08-08T18:40:17Z</time>
      </trkpt>
      <trkpt lat="59.9877319" lon="17.7394">
        <ele>63.5844</ele>
        <time>2012-08-08T18:40:19Z</time>
      </trkpt>
      <trkpt lat="59.9876675" lon="17.7394868">
        <ele>65.5071</ele>
        <time>2012-08-08T18:40:25Z</time>
      </trkpt>
      <trkpt lat="59.9876045" lon="17.7394382">
        <ele>66.4683</ele>
        <time>2012-08-08T18:40:28Z</time>
      </trkpt>
      <trkpt lat="59.9874651" lon="17.7392871">
        <ele>74.6395</ele>
        <time>2012-08-08T18:40:34Z</time>
      </trkpt>
      <trkpt lat="59.9873972" lon="17.7391555">
        <ele>76.0814</ele>
        <time>2012-08-08T18:40:36Z</time>
      </trkpt>
      <trkpt lat="59.9872879" lon="17.7389431">
        <ele>82.3301</ele>
        <time>2012-08-08T18:40:39Z</time>
      </trkpt>
      <trkpt lat="59.9872916" lon="17.7391715">
        <ele>87.1366</ele>
        <time>2012-08-08T18:40:41Z</time>
      </trkpt>
      <trkpt lat="59.9872755" lon="17.7391984">
        <ele>83.772</ele>
        <time>2012-08-08T18:40:43Z</time>
      </trkpt>
      <trkpt lat="59.9871858" lon="17.7391507">
        <ele>83.2914</ele>
        <time>2012-08-08T18:40:49Z</time>
      </trkpt>
      <trkpt lat="59.9871513" lon="17.7391497">
        <ele>82.8108</ele>
        <time>2012-08-08T18:40:52Z</time>
      </trkpt>
      <trkpt lat="59.9870641" lon="17.739257">
        <ele>91.9432</ele>
        <time>2012-08-08T18:40:58Z</time>
      </trkpt>
      <trkpt lat="59.9870346" lon="17.7391514">
        <ele>93.3851</ele>
        <time>2012-08-08T18:40:59Z</time>
      </trkpt>
      <trkpt lat="59.9868668" lon="17.7388057">
        <ele>103.479</ele>
        <time>2012-08-08T18:41:04Z</time>
      </trkpt>
      <trkpt lat="59.9868098" lon="17.7386575">
        <ele>105.402</ele>
        <time>2012-08-08T18:41:06Z</time>
      </trkpt>
      <trkpt lat="59.9866913" lon="17.7383088">
        <ele>103.96</ele>
        <time>2012-08-08T18:41:10Z</time>
      </trkpt>
      <trkpt lat="59.9867226" lon="17.7386564">
        <ele>94.8271</ele>
        <time>2012-08-08T18:41:14Z</time>
      </trkpt>
      <trkpt lat="59.9867502" lon="17.7388938">
        <ele>92.9045</ele>
        <time>2012-08-08T18:41:16Z</time>
      </trkpt>
      <trkpt lat="59.9867663" lon="17.7390564">
        <ele>87.1366</ele>
        <time>2012-08-08T18:41:18Z</time>
      </trkpt>
      <trkpt lat="59.9866689" lon="17.7389487">
        <ele>78.9655</ele>
        <time>2012-08-08T18:41:24Z</time>
      </trkpt>
      <trkpt lat="59.9866193" lon="17.7389537">
        <ele>68.8716</ele>
        <time>2012-08-08T18:41:29Z</time>
      </trkpt>
      <trkpt lat="59.986601" lon="17.7389144">
        <ele>67.9103</ele>
        <time>2012-08-08T18:41:30Z</time>
      </trkpt>
      <trkpt lat="59.9865177" lon="17.7386906">
        <ele>61.6617</ele>
        <time>2012-08-08T18:41:34Z</time>
      </trkpt>
      <trkpt lat="59.9864493" lon="17.7385321">
        <ele>59.7391</ele>
        <time>2012-08-08T18:41:38Z</time>
      </trkpt>
      <trkpt lat="59.9863933" lon="17.7384746">
        <ele>62.1423</ele>
        <time>2012-08-08T18:41:42Z</time>
      </trkpt>
      <trkpt lat="59.9863186" lon="17.7383659">
        <ele>60.7003</ele>
        <time>2012-08-08T18:41:47Z</time>
      </trkpt>
      <trkpt lat="59.9862279" lon="17.7383084">
        <ele>61.6617</ele>
        <time>2012-08-08T18:41:54Z</time>
      </trkpt>
      <trkpt lat="59.9862153" lon="17.738301">
        <ele>61.6617</ele>
        <time>2012-08-08T18:41:55Z</time>
      </trkpt>
      <trkpt lat="59.9861049" lon="17.7380805">
        <ele>67.4297</ele>
        <time>2012-08-08T18:42:00Z</time>
      </trkpt>
      <trkpt lat="59.9859901" lon="17.7380292">
        <ele>75.6008</ele>
        <time>2012-08-08T18:42:06Z</time>
      </trkpt>
      <trkpt lat="59.9859727" lon="17.7380267">
        <ele>76.0814</ele>
        <time>2012-08-08T18:42:07Z</time>
      </trkpt>
      <trkpt lat="59.9859023" lon="17.7380567">
        <ele>78.9655</ele>
        <time>2012-08-08T18:42:12Z</time>
      </trkpt>
      <trkpt lat="59.9857793" lon="17.737867">
        <ele>77.5234</ele>
        <time>2012-08-08T18:42:17Z</time>
      </trkpt>
      <trkpt lat="59.9857329" lon="17.7380058">
        <ele>76.0814</ele>
        <time>2012-08-08T18:42:22Z</time>
      </trkpt>
      <trkpt lat="59.9857215" lon="17.7380339">
        <ele>76.5621</ele>
        <time>2012-08-08T18:42:23Z</time>
      </trkpt>
      <trkpt lat="59.9856636" lon="17.7379527">
        <ele>71.2749</ele>
        <time>2012-08-08T18:42:28Z</time>
      </trkpt>
      <trkpt lat="59.9856657" lon="17.7383114">
        <ele>66.949</ele>
        <time>2012-08-08T18:42:34Z</time>
      </trkpt>
      <trkpt lat="59.9856405" lon="17.7382577">
        <ele>65.9877</ele>
        <time>2012-08-08T18:42:36Z</time>
      </trkpt>
      <trkpt lat="59.9855532" lon="17.738121">
        <ele>63.1036</ele>
        <time>2012-08-08T18:42:42Z</time>
      </trkpt>
      <trkpt lat="59.9855044" lon="17.7383126">
        <ele>61.181</ele>
        <time>2012-08-08T18:42:49Z</time>
      </trkpt>
      <trkpt lat="59.9855028" lon="17.7384016">
        <ele>63.1036</ele>
        <time>2012-08-08T18:42:50Z</time>
      </trkpt>
      <trkpt lat="59.9854158" lon="17.7383131">
        <ele>64.0651</ele>
        <time>2012-08-08T18:42:55Z</time>
      </trkpt>
      <trkpt lat="59.9852611" lon="17.7378899">
        <ele>66.4683</ele>
        <time>2012-08-08T18:43:00Z</time>
      </trkpt>
      <trkpt lat="59.9852287" lon="17.738093">
        <ele>66.4683</ele>
        <time>2012-08-08T18:43:05Z</time>
      </trkpt>
      <trkpt lat="59.9851506" lon="17.7381282">
        <ele>65.0264</ele>
        <time>2012-08-08T18:43:11Z</time>
      </trkpt>
      <trkpt lat="59.9850793" lon="17.7381386">
        <ele>65.0264</ele>
        <time>2012-08-08T18:43:16Z</time>
      </trkpt>
      <trkpt lat="59.9849925" lon="17.7381571">
        <ele>63.5844</ele>
        <time>2012-08-08T18:43:22Z</time>
      </trkpt>
      <trkpt lat="59.9849372" lon="17.7381606">
        <ele>61.181</ele>
        <time>2012-08-08T18:43:25Z</time>
      </trkpt>
      <trkpt lat="59.9848848" lon="17.7381218">
        <ele>54.9324</ele>
        <time>2012-08-08T18:43:30Z</time>
      </trkpt>
      <trkpt lat="59.984773" lon="17.7381079">
        <ele>52.5292</ele>
        <time>2012-08-08T18:43:37Z</time>
      </trkpt>
      <trkpt lat="59.9847008" lon="17.7381085">
        <ele>46.7612</ele>
        <time>2012-08-08T18:43:43Z</time>
      </trkpt>
      <trkpt lat="59.9846135" lon="17.7380886">
        <ele>44.8386</ele>
        <time>2012-08-08T18:43:48Z</time>
      </trkpt>
      <trkpt lat="59.9845549" lon="17.7380726">
        <ele>45.7999</ele>
        <time>2012-08-08T18:43:52Z</time>
      </trkpt>
      <trkpt lat="59.9845031" lon="17.7380468">
        <ele>47.2418</ele>
        <time>2012-08-08T18:43:55Z</time>
      </trkpt>
      <trkpt lat="59.9843746" lon="17.7380132">
        <ele>55.4131</ele>
        <time>2012-08-08T18:44:01Z</time>
      </trkpt>
      <trkpt lat="59.984275" lon="17.7379866">
        <ele>57.3358</ele>
        <time>2012-08-08T18:44:07Z</time>
      </trkpt>
      <trkpt lat="59.9841477" lon="17.7379783">
        <ele>67.4297</ele>
        <time>2012-08-08T18:44:14Z</time>
      </trkpt>
      <trkpt lat="59.9840393" lon="17.7379571">
        <ele>72.7169</ele>
        <time>2012-08-08T18:44:20Z</time>
      </trkpt>
      <trkpt lat="59.9839534" lon="17.7379444">
        <ele>70.3135</ele>
        <time>2012-08-08T18:44:27Z</time>
      </trkpt>
      <trkpt lat="59.9839483" lon="17.7379571">
        <ele>69.3523</ele>
        <time>2012-08-08T18:44:29Z</time>
      </trkpt>
      <trkpt lat="59.983922" lon="17.7379436">
        <ele>67.9103</ele>
        <time>2012-08-08T18:44:31Z</time>
      </trkpt>
      <trkpt lat="59.9838468" lon="17.737969">
        <ele>65.9877</ele>
        <time>2012-08-08T18:44:35Z</time>
      </trkpt>
      <trkpt lat="59.9838096" lon="17.7379982">
        <ele>63.1036</ele>
        <time>2012-08-08T18:44:38Z</time>
      </trkpt>
      <trkpt lat="59.9837255" lon="17.7380075">
        <ele>63.1036</ele>
        <time>2012-08-08T18:44:43Z</time>
      </trkpt>
      <trkpt lat="59.9836242" lon="17.7380194">
        <ele>66.949</ele>
        <time>2012-08-08T18:44:48Z</time>
      </trkpt>
      <trkpt lat="59.9835452" lon="17.7380649">
        <ele>72.7169</ele>
        <time>2012-08-08T18:44:54Z</time>
      </trkpt>
      <trkpt lat="59.9834869" lon="17.7380953">
        <ele>77.5234</ele>
        <time>2012-08-08T18:44:58Z</time>
      </trkpt>
      <trkpt lat="59.9833645" lon="17.7381187">
        <ele>80.4075</ele>
        <time>2012-08-08T18:45:05Z</time>
      </trkpt>
      <trkpt lat="59.983327" lon="17.73813">
        <ele>76.0814</ele>
        <time>2012-08-08T18:45:09Z</time>
      </trkpt>
      <trkpt lat="59.9832918" lon="17.738165">
        <ele>73.6782</ele>
        <time>2012-08-08T18:45:13Z</time>
      </trkpt>
      <trkpt lat="59.9832345" lon="17.7381449">
        <ele>73.6782</ele>
        <time>2012-08-08T18:45:16Z</time>
      </trkpt>
      <trkpt lat="59.9831277" lon="17.7381479">
        <ele>73.1976</ele>
        <time>2012-08-08T18:45:21Z</time>
      </trkpt>
      <trkpt lat="59.9829953" lon="17.7381774">
        <ele>83.772</ele>
        <time>2012-08-08T18:45:27Z</time>
      </trkpt>
      <trkpt lat="59.9829246" lon="17.7381918">
        <ele>83.772</ele>
        <time>2012-08-08T18:45:32Z</time>
      </trkpt>
      <trkpt lat="59.982844" lon="17.7381575">
        <ele>71.7555</ele>
        <time>2012-08-08T18:45:39Z</time>
      </trkpt>
      <trkpt lat="59.9828129" lon="17.7381344">
        <ele>65.0264</ele>
        <time>2012-08-08T18:45:42Z</time>
      </trkpt>
      <trkpt lat="59.9827888" lon="17.7381405">
        <ele>63.1036</ele>
        <time>2012-08-08T18:45:44Z</time>
      </trkpt>
      <trkpt lat="59.9826752" lon="17.7380997">
        <ele>63.5844</ele>
        <time>2012-08-08T18:45:51Z</time>
      </trkpt>
      <trkpt lat="59.9826191" lon="17.7380835">
        <ele>63.5844</ele>
        <time>2012-08-08T18:45:55Z</time>
      </trkpt>
      <trkpt lat="59.9825355" lon="17.7380577">
        <ele>66.4683</ele>
        <time>2012-08-08T18:45:59Z</time>
      </trkpt>
      <trkpt lat="59.9824726" lon="17.7380374">
        <ele>69.3523</ele>
        <time>2012-08-08T18:46:02Z</time>
      </trkpt>
      <trkpt lat="59.9823947" lon="17.7380468">
        <ele>65.5071</ele>
        <time>2012-08-08T18:46:07Z</time>
      </trkpt>
      <trkpt lat="59.9823571" lon="17.7380672">
        <ele>64.5457</ele>
        <time>2012-08-08T18:46:10Z</time>
      </trkpt>
      <trkpt lat="59.9823338" lon="17.7380867">
        <ele>65.9877</ele>
        <time>2012-08-08T18:46:12Z</time>
      </trkpt>
      <trkpt lat="59.9822344" lon="17.7381041">
        <ele>70.7942</ele>
        <time>2012-08-08T18:46:18Z</time>
      </trkpt>
      <trkpt lat="59.982123" lon="17.7381545">
        <ele>79.446</ele>
        <time>2012-08-08T18:46:24Z</time>
      </trkpt>
      <trkpt lat="59.982025" lon="17.7381888">
        <ele>82.8108</ele>
        <time>2012-08-08T18:46:29Z</time>
      </trkpt>
      <trkpt lat="59.9820047" lon="17.7381919">
        <ele>83.772</ele>
        <time>2012-08-08T18:46:30Z</time>
      </trkpt>
      <trkpt lat="59.98194" lon="17.7382529">
        <ele>73.6782</ele>
        <time>2012-08-08T18:46:37Z</time>
      </trkpt>
      <trkpt lat="59.9818484" lon="17.7383007">
        <ele>75.6008</ele>
        <time>2012-08-08T18:46:43Z</time>
      </trkpt>
      <trkpt lat="59.981702" lon="17.7383383">
        <ele>86.1753</ele>
        <time>2012-08-08T18:46:50Z</time>
      </trkpt>
      <trkpt lat="59.9816458" lon="17.7383613">
        <ele>82.8108</ele>
        <time>2012-08-08T18:46:54Z</time>
      </trkpt>
      <trkpt lat="59.9816133" lon="17.7384122">
        <ele>74.1588</ele>
        <time>2012-08-08T18:46:59Z</time>
      </trkpt>
      <trkpt lat="59.9815936" lon="17.7384572">
        <ele>60.2197</ele>
        <time>2012-08-08T18:47:04Z</time>
      </trkpt>
      <trkpt lat="59.9815784" lon="17.738496">
        <ele>54.9324</ele>
        <time>2012-08-08T18:47:07Z</time>
      </trkpt>
      <trkpt lat="59.9814841" lon="17.738494">
        <ele>46.7612</ele>
        <time>2012-08-08T18:47:13Z</time>
      </trkpt>
      <trkpt lat="59.9814309" lon="17.7385269">
        <ele>42.916</ele>
        <time>2012-08-08T18:47:17Z</time>
      </trkpt>
      <trkpt lat="59.9813318" lon="17.7385855">
        <ele>45.7999</ele>
        <time>2012-08-08T18:47:23Z</time>
      </trkpt>
      <trkpt lat="59.981318" lon="17.7385975">
        <ele>46.2806</ele>
        <time>2012-08-08T18:47:24Z</time>
      </trkpt>
      <trkpt lat="59.9812702" lon="17.7386078">
        <ele>46.2806</ele>
        <time>2012-08-08T18:47:27Z</time>
      </trkpt>
      <trkpt lat="59.9811273" lon="17.7386046">
        <ele>56.3745</ele>
        <time>2012-08-08T18:47:34Z</time>
      </trkpt>
      <trkpt lat="59.9809931" lon="17.7386365">
        <ele>50.6066</ele>
        <time>2012-08-08T18:47:42Z</time>
      </trkpt>
      <trkpt lat="59.9808868" lon="17.7386375">
        <ele>57.8165</ele>
        <time>2012-08-08T18:47:47Z</time>
      </trkpt>
      <trkpt lat="59.9807942" lon="17.7386812">
        <ele>65.9877</ele>
        <time>2012-08-08T18:47:52Z</time>
      </trkpt>
      <trkpt lat="59.9807689" lon="17.7387111">
        <ele>65.9877</ele>
        <time>2012-08-08T18:47:56Z</time>
      </trkpt>
      <trkpt lat="59.9806746" lon="17.7387273">
        <ele>64.5457</ele>
        <time>2012-08-08T18:48:02Z</time>
      </trkpt>
      <trkpt lat="59.9806346" lon="17.7387499">
        <ele>66.4683</ele>
        <time>2012-08-08T18:48:05Z</time>
      </trkpt>
      <trkpt lat="59.9806194" lon="17.7387532">
        <ele>66.4683</ele>
        <time>2012-08-08T18:48:06Z</time>
      </trkpt>
      <trkpt lat="59.9805765" lon="17.7387693">
        <ele>68.3909</ele>
        <time>2012-08-08T18:48:08Z</time>
      </trkpt>
      <trkpt lat="59.9805186" lon="17.7388107">
        <ele>67.4297</ele>
        <time>2012-08-08T18:48:13Z</time>
      </trkpt>
      <trkpt lat="59.9804926" lon="17.7388035">
        <ele>65.5071</ele>
        <time>2012-08-08T18:48:15Z</time>
      </trkpt>
      <trkpt lat="59.9804876" lon="17.7388426">
        <ele>64.0651</ele>
        <time>2012-08-08T18:48:17Z</time>
      </trkpt>
      <trkpt lat="59.9804197" lon="17.7388622">
        <ele>54.9324</ele>
        <time>2012-08-08T18:48:22Z</time>
      </trkpt>
      <trkpt lat="59.9803036" lon="17.7388359">
        <ele>45.3192</ele>
        <time>2012-08-08T18:48:29Z</time>
      </trkpt>
      <trkpt lat="59.9802253" lon="17.7388131">
        <ele>42.4354</ele>
        <time>2012-08-08T18:48:33Z</time>
      </trkpt>
      <trkpt lat="59.980133" lon="17.7387825">
        <ele>38.1094</ele>
        <time>2012-08-08T18:48:39Z</time>
      </trkpt>
      <trkpt lat="59.9800258" lon="17.7387627">
        <ele>40.9934</ele>
        <time>2012-08-08T18:48:45Z</time>
      </trkpt>
      <trkpt lat="59.9799196" lon="17.7387574">
        <ele>43.3966</ele>
        <time>2012-08-08T18:48:51Z</time>
      </trkpt>
      <trkpt lat="59.9798395" lon="17.7387727">
        <ele>44.358</ele>
        <time>2012-08-08T18:48:56Z</time>
      </trkpt>
      <trkpt lat="59.9798053" lon="17.7388061">
        <ele>43.3966</ele>
        <time>2012-08-08T18:49:00Z</time>
      </trkpt>
      <trkpt lat="59.9797431" lon="17.7388476">
        <ele>40.0321</ele>
        <time>2012-08-08T18:49:06Z</time>
      </trkpt>
      <trkpt lat="59.9796621" lon="17.7388249">
        <ele>38.1094</ele>
        <time>2012-08-08T18:49:10Z</time>
      </trkpt>
      <trkpt lat="59.9795523" lon="17.7388823">
        <ele>41.474</ele>
        <time>2012-08-08T18:49:17Z</time>
      </trkpt>
      <trkpt lat="59.9794642" lon="17.7389141">
        <ele>38.1094</ele>
        <time>2012-08-08T18:49:23Z</time>
      </trkpt>
      <trkpt lat="59.9794567" lon="17.7389187">
        <ele>37.1481</ele>
        <time>2012-08-08T18:49:24Z</time>
      </trkpt>
      <trkpt lat="59.979381" lon="17.7389861">
        <ele>34.2642</ele>
        <time>2012-08-08T18:49:30Z</time>
      </trkpt>
      <trkpt lat="59.9793732" lon="17.7390039">
        <ele>32.3416</ele>
        <time>2012-08-08T18:49:31Z</time>
      </trkpt>
      <trkpt lat="59.9792686" lon="17.7390824">
        <ele>28.0155</ele>
        <time>2012-08-08T18:49:39Z</time>
      </trkpt>
      <trkpt lat="59.9791791" lon="17.739165">
        <ele>27.5349</ele>
        <time>2012-08-08T18:49:45Z</time>
      </trkpt>
      <trkpt lat="59.9791643" lon="17.7391746">
        <ele>27.5349</ele>
        <time>2012-08-08T18:49:46Z</time>
      </trkpt>
      <trkpt lat="59.9790794" lon="17.7392355">
        <ele>28.0155</ele>
        <time>2012-08-08T18:49:52Z</time>
      </trkpt>
      <trkpt lat="59.9789877" lon="17.7392897">
        <ele>29.9381</ele>
        <time>2012-08-08T18:49:58Z</time>
      </trkpt>
      <trkpt lat="59.9789038" lon="17.7393351">
        <ele>32.3416</ele>
        <time>2012-08-08T18:50:04Z</time>
      </trkpt>
      <trkpt lat="59.9788024" lon="17.7393253">
        <ele>31.8607</ele>
        <time>2012-08-08T18:50:11Z</time>
      </trkpt>
      <trkpt lat="59.9787167" lon="17.7393107">
        <ele>32.3416</ele>
        <time>2012-08-08T18:50:16Z</time>
      </trkpt>
      <trkpt lat="59.9786102" lon="17.7392916">
        <ele>30.8995</ele>
        <time>2012-08-08T18:50:23Z</time>
      </trkpt>
      <trkpt lat="59.9785186" lon="17.7392932">
        <ele>31.3801</ele>
        <time>2012-08-08T18:50:29Z</time>
      </trkpt>
      <trkpt lat="59.9783999" lon="17.7393033">
        <ele>28.4962</ele>
        <time>2012-08-08T18:50:36Z</time>
      </trkpt>
      <trkpt lat="59.9783139" lon="17.7392781">
        <ele>28.4962</ele>
        <time>2012-08-08T18:50:41Z</time>
      </trkpt>
      <trkpt lat="59.9782347" lon="17.7392761">
        <ele>26.0929</ele>
        <time>2012-08-08T18:50:47Z</time>
      </trkpt>
      <trkpt lat="59.9781732" lon="17.7392454">
        <ele>22.2476</ele>
        <time>2012-08-08T18:50:52Z</time>
      </trkpt>
      <trkpt lat="59.9781153" lon="17.7392156">
        <ele>18.4023</ele>
        <time>2012-08-08T18:50:57Z</time>
      </trkpt>
      <trkpt lat="59.9780465" lon="17.7391679">
        <ele>15.0377</ele>
        <time>2012-08-08T18:51:03Z</time>
      </trkpt>
      <trkpt lat="59.97799" lon="17.7391061">
        <ele>14.0764</ele>
        <time>2012-08-08T18:51:08Z</time>
      </trkpt>
      <trkpt lat="59.9778828" lon="17.7390443">
        <ele>11.6732</ele>
        <time>2012-08-08T18:51:16Z</time>
      </trkpt>
      <trkpt lat="59.9777914" lon="17.7390196">
        <ele>10.7118</ele>
        <time>2012-08-08T18:51:22Z</time>
      </trkpt>
      <trkpt lat="59.9776794" lon="17.7390364">
        <ele>8.78918</ele>
        <time>2012-08-08T18:51:28Z</time>
      </trkpt>
      <trkpt lat="59.977574" lon="17.7390218">
        <ele>11.6732</ele>
        <time>2012-08-08T18:51:34Z</time>
      </trkpt>
      <trkpt lat="59.9775523" lon="17.7390356">
        <ele>12.1538</ele>
        <time>2012-08-08T18:51:36Z</time>
      </trkpt>
      <trkpt lat="59.9774241" lon="17.7390761">
        <ele>16.4797</ele>
        <time>2012-08-08T18:51:43Z</time>
      </trkpt>
      <trkpt lat="59.9773147" lon="17.7391471">
        <ele>20.8057</ele>
        <time>2012-08-08T18:51:48Z</time>
      </trkpt>
      <trkpt lat="59.9772675" lon="17.7391865">
        <ele>20.325</ele>
        <time>2012-08-08T18:51:51Z</time>
      </trkpt>
      <trkpt lat="59.977184" lon="17.7392357">
        <ele>16.4797</ele>
        <time>2012-08-08T18:51:58Z</time>
      </trkpt>
      <trkpt lat="59.9771396" lon="17.7392677">
        <ele>17.9218</ele>
        <time>2012-08-08T18:52:01Z</time>
      </trkpt>
      <trkpt lat="59.9770508" lon="17.7392854">
        <ele>15.5184</ele>
        <time>2012-08-08T18:52:07Z</time>
      </trkpt>
      <trkpt lat="59.9769189" lon="17.7393521">
        <ele>17.4412</ele>
        <time>2012-08-08T18:52:15Z</time>
      </trkpt>
      <trkpt lat="59.9768028" lon="17.7393832">
        <ele>18.4023</ele>
        <time>2012-08-08T18:52:23Z</time>
      </trkpt>
      <trkpt lat="59.9767064" lon="17.7393781">
        <ele>19.8444</ele>
        <time>2012-08-08T18:52:30Z</time>
      </trkpt>
      <trkpt lat="59.9766081" lon="17.7394005">
        <ele>19.3638</ele>
        <time>2012-08-08T18:52:37Z</time>
      </trkpt>
      <trkpt lat="59.9765092" lon="17.7395083">
        <ele>18.4023</ele>
        <time>2012-08-08T18:52:44Z</time>
      </trkpt>
      <trkpt lat="59.976494" lon="17.7395221">
        <ele>17.9218</ele>
        <time>2012-08-08T18:52:45Z</time>
      </trkpt>
      <trkpt lat="59.9764211" lon="17.7396898">
        <ele>19.8444</ele>
        <time>2012-08-08T18:52:52Z</time>
      </trkpt>
      <trkpt lat="59.9763465" lon="17.7397646">
        <ele>21.767</ele>
        <time>2012-08-08T18:52:57Z</time>
      </trkpt>
      <trkpt lat="59.9763014" lon="17.7397414">
        <ele>22.2476</ele>
        <time>2012-08-08T18:53:00Z</time>
      </trkpt>
      <trkpt lat="59.9761591" lon="17.7396523">
        <ele>26.0929</ele>
        <time>2012-08-08T18:53:09Z</time>
      </trkpt>
      <trkpt lat="59.9760539" lon="17.7395138">
        <ele>29.4575</ele>
        <time>2012-08-08T18:53:17Z</time>
      </trkpt>
      <trkpt lat="59.9759839" lon="17.7393901">
        <ele>29.9381</ele>
        <time>2012-08-08T18:53:23Z</time>
      </trkpt>
      <trkpt lat="59.9758814" lon="17.7392165">
        <ele>32.8223</ele>
        <time>2012-08-08T18:53:31Z</time>
      </trkpt>
      <trkpt lat="59.9757896" lon="17.7390507">
        <ele>34.2642</ele>
        <time>2012-08-08T18:53:39Z</time>
      </trkpt>
      <trkpt lat="59.9757377" lon="17.7389695">
        <ele>35.2255</ele>
        <time>2012-08-08T18:53:43Z</time>
      </trkpt>
      <trkpt lat="59.9756617" lon="17.7388537">
        <ele>34.2642</ele>
        <time>2012-08-08T18:53:49Z</time>
      </trkpt>
      <trkpt lat="59.9756995" lon="17.7388115">
        <ele>31.8607</ele>
        <time>2012-08-08T18:53:53Z</time>
      </trkpt>
      <trkpt lat="59.9757565" lon="17.7388803">
        <ele>31.8607</ele>
        <time>2012-08-08T18:53:57Z</time>
      </trkpt>
      <trkpt lat="59.9758404" lon="17.7389959">
        <ele>31.8607</ele>
        <time>2012-08-08T18:54:03Z</time>
      </trkpt>
      <trkpt lat="59.9759005" lon="17.739087">
        <ele>30.4188</ele>
        <time>2012-08-08T18:54:07Z</time>
      </trkpt>
      <trkpt lat="59.9760293" lon="17.7393091">
        <ele>27.5349</ele>
        <time>2012-08-08T18:54:16Z</time>
      </trkpt>
      <trkpt lat="59.976117" lon="17.739442">
        <ele>30.4188</ele>
        <time>2012-08-08T18:54:22Z</time>
      </trkpt>
      <trkpt lat="59.976217" lon="17.7396055">
        <ele>33.3029</ele>
        <time>2012-08-08T18:54:30Z</time>
      </trkpt>
      <trkpt lat="59.9763094" lon="17.7396801">
        <ele>33.3029</ele>
        <time>2012-08-08T18:54:37Z</time>
      </trkpt>
      <trkpt lat="59.9764021" lon="17.739615">
        <ele>31.3801</ele>
        <time>2012-08-08T18:54:44Z</time>
      </trkpt>
      <trkpt lat="59.976461" lon="17.7395082">
        <ele>28.4962</ele>
        <time>2012-08-08T18:54:49Z</time>
      </trkpt>
      <trkpt lat="59.9765352" lon="17.7393947">
        <ele>26.5736</ele>
        <time>2012-08-08T18:54:55Z</time>
      </trkpt>
      <trkpt lat="59.9766423" lon="17.7393016">
        <ele>24.651</ele>
        <time>2012-08-08T18:55:03Z</time>
      </trkpt>
      <trkpt lat="59.9766748" lon="17.7392896">
        <ele>24.1703</ele>
        <time>2012-08-08T18:55:05Z</time>
      </trkpt>
      <trkpt lat="59.9767765" lon="17.7392915">
        <ele>23.209</ele>
        <time>2012-08-08T18:55:12Z</time>
      </trkpt>
      <trkpt lat="59.976797" lon="17.7392725">
        <ele>23.6896</ele>
        <time>2012-08-08T18:55:14Z</time>
      </trkpt>
      <trkpt lat="59.9768916" lon="17.7392201">
        <ele>23.6896</ele>
        <time>2012-08-08T18:55:20Z</time>
      </trkpt>
      <trkpt lat="59.9770241" lon="17.7391754">
        <ele>23.6896</ele>
        <time>2012-08-08T18:55:28Z</time>
      </trkpt>
      <trkpt lat="59.9771296" lon="17.7391145">
        <ele>27.0543</ele>
        <time>2012-08-08T18:55:34Z</time>
      </trkpt>
      <trkpt lat="59.9772302" lon="17.7390357">
        <ele>27.5349</ele>
        <time>2012-08-08T18:55:41Z</time>
      </trkpt>
      <trkpt lat="59.9772904" lon="17.7390022">
        <ele>27.0543</ele>
        <time>2012-08-08T18:55:45Z</time>
      </trkpt>
      <trkpt lat="59.9774104" lon="17.7389622">
        <ele>25.6123</ele>
        <time>2012-08-08T18:55:53Z</time>
      </trkpt>
      <trkpt lat="59.9774995" lon="17.738932">
        <ele>25.6123</ele>
        <time>2012-08-08T18:55:59Z</time>
      </trkpt>
      <trkpt lat="59.9775877" lon="17.7389108">
        <ele>30.4188</ele>
        <time>2012-08-08T18:56:04Z</time>
      </trkpt>
      <trkpt lat="59.977715" lon="17.7389221">
        <ele>33.3029</ele>
        <time>2012-08-08T18:56:11Z</time>
      </trkpt>
      <trkpt lat="59.9778028" lon="17.7389278">
        <ele>35.2255</ele>
        <time>2012-08-08T18:56:17Z</time>
      </trkpt>
      <trkpt lat="59.9779032" lon="17.7389612">
        <ele>39.0707</ele>
        <time>2012-08-08T18:56:22Z</time>
      </trkpt>
      <trkpt lat="59.9779803" lon="17.7390006">
        <ele>40.5128</ele>
        <time>2012-08-08T18:56:27Z</time>
      </trkpt>
      <trkpt lat="59.9780714" lon="17.739078">
        <ele>41.9547</ele>
        <time>2012-08-08T18:56:34Z</time>
      </trkpt>
      <trkpt lat="59.9781728" lon="17.7391391">
        <ele>44.358</ele>
        <time>2012-08-08T18:56:41Z</time>
      </trkpt>
      <trkpt lat="59.97819" lon="17.7391466">
        <ele>44.358</ele>
        <time>2012-08-08T18:56:42Z</time>
      </trkpt>
      <trkpt lat="59.9783077" lon="17.7391632">
        <ele>42.916</ele>
        <time>2012-08-08T18:56:49Z</time>
      </trkpt>
      <trkpt lat="59.9783906" lon="17.7391792">
        <ele>39.5513</ele>
        <time>2012-08-08T18:56:54Z</time>
      </trkpt>
      <trkpt lat="59.9784704" lon="17.7392031">
        <ele>39.5513</ele>
        <time>2012-08-08T18:56:59Z</time>
      </trkpt>
      <trkpt lat="59.9785451" lon="17.7392619">
        <ele>38.1094</ele>
        <time>2012-08-08T18:57:04Z</time>
      </trkpt>
      <trkpt lat="59.9786368" lon="17.7393103">
        <ele>38.1094</ele>
        <time>2012-08-08T18:57:09Z</time>
      </trkpt>
      <trkpt lat="59.9787429" lon="17.7393061">
        <ele>35.7061</ele>
        <time>2012-08-08T18:57:16Z</time>
      </trkpt>
      <trkpt lat="59.9788396" lon="17.7393044">
        <ele>32.8223</ele>
        <time>2012-08-08T18:57:22Z</time>
      </trkpt>
      <trkpt lat="59.9788801" lon="17.7394356">
        <ele>30.4188</ele>
        <time>2012-08-08T18:57:27Z</time>
      </trkpt>
      <trkpt lat="59.9788766" lon="17.7394957">
        <ele>29.4575</ele>
        <time>2012-08-08T18:57:29Z</time>
      </trkpt>
      <trkpt lat="59.9788588" lon="17.7396157">
        <ele>28.9769</ele>
        <time>2012-08-08T18:57:33Z</time>
      </trkpt>
      <trkpt lat="59.9788144" lon="17.7397097">
        <ele>28.9769</ele>
        <time>2012-08-08T18:57:38Z</time>
      </trkpt>
      <trkpt lat="59.9788163" lon="17.7398739">
        <ele>28.9769</ele>
        <time>2012-08-08T18:57:44Z</time>
      </trkpt>
      <trkpt lat="59.9788214" lon="17.7399033">
        <ele>28.9769</ele>
        <time>2012-08-08T18:57:45Z</time>
      </trkpt>
      <trkpt lat="59.9788491" lon="17.7399333">
        <ele>31.8607</ele>
        <time>2012-08-08T18:57:47Z</time>
      </trkpt>
    </trkseg>
  </trk>
</gpx>